Lancaster, Ohio
Current Conditions -  °F | °C
As of 7:53 PM on Monday 22 Dec 2014 (Local Time) from KLHQ Reporting Station
Overcast Overcast  
Wind Chill: 55°   Ceiling: 11000
Heat Index: 55°   Visibility: 10mi
Dew Point: 36°   Wind: 6mph
Humidity: 49%   Direction: 90°E
Pressure: 29.86"   Gusts: NA
Location:  39.71°N, 82.6°W
Report Text: KLHQ 230053Z AUTO 09005KT 10SM OVC110 13/02 A2986 RMK AO2 SLP113 T01280022
Loading
Personal Weather Stations






























Interactive Weather Map New forecast layout! Learn more

10-Day Weather Forecast

Advertisements
Track Severe Weather on mobile